createdAt,value
2022-10-22T00:00:53.469Z,13.00
2022-10-22T00:03:20.893Z,13.00
2022-10-22T00:05:48.792Z,13.00
2022-10-22T00:08:16.039Z,12.90
2022-10-22T00:10:43.334Z,13.00
2022-10-22T00:13:11.203Z,12.90
2022-10-22T00:15:38.736Z,12.90
2022-10-22T00:18:06.154Z,12.90
2022-10-22T00:20:33.543Z,12.90
2022-10-22T00:23:00.908Z,12.90
2022-10-22T00:25:28.327Z,12.90
2022-10-22T00:27:55.563Z,12.90
2022-10-22T00:30:22.808Z,12.80
2022-10-22T00:32:50.083Z,12.80
2022-10-22T00:35:17.513Z,12.80
2022-10-22T00:37:44.857Z,12.80
2022-10-22T00:40:13.061Z,12.70
2022-10-22T00:42:40.429Z,12.70
2022-10-22T00:45:17.261Z,12.70
2022-10-22T00:47:51.012Z,12.50
2022-10-22T00:50:26.887Z,12.40
2022-10-22T00:52:55.613Z,12.30
2022-10-22T00:55:24.689Z,12.30
2022-10-22T00:57:54.621Z,12.30
2022-10-22T01:00:22.184Z,12.30
2022-10-22T01:02:52.313Z,12.30
2022-10-22T01:05:19.798Z,12.20
2022-10-22T01:07:53.943Z,12.20
2022-10-22T01:10:42.423Z,12.20
2022-10-22T01:13:32.980Z,12.20
2022-10-22T01:16:16.324Z,12.10
2022-10-22T01:19:13.247Z,12.20
2022-10-22T01:21:46.386Z,12.20
2022-10-22T01:24:13.593Z,12.30
2022-10-22T01:26:59.063Z,12.30
2022-10-22T01:29:30.506Z,12.30
2022-10-22T01:32:05.895Z,12.30
2022-10-22T01:34:34.514Z,12.40
2022-10-22T01:37:03.362Z,12.30
2022-10-22T01:39:31.399Z,12.40
2022-10-22T01:41:58.886Z,12.40
2022-10-22T01:44:32.063Z,12.50
2022-10-22T01:47:15.856Z,12.50
2022-10-22T01:50:14.001Z,12.50
2022-10-22T01:53:17.724Z,12.50
2022-10-22T01:56:05.366Z,12.40
2022-10-22T01:58:44.828Z,12.30
2022-10-22T02:01:21.940Z,12.20
2022-10-22T02:04:23.142Z,12.10
2022-10-22T02:06:54.869Z,12.10
2022-10-22T02:09:23.706Z,12.00
2022-10-22T02:11:51.927Z,12.00
2022-10-22T02:14:20.596Z,11.90
2022-10-22T02:16:50.485Z,11.90
2022-10-22T02:19:43.585Z,11.80
2022-10-22T02:22:11.222Z,11.80
2022-10-22T02:24:38.844Z,11.80
2022-10-22T02:27:28.561Z,11.80
2022-10-22T02:32:56.512Z,11.80
2022-10-22T02:35:26.438Z,11.80
2022-10-22T02:37:57.036Z,11.70
2022-10-22T02:40:24.901Z,11.70
2022-10-22T02:42:53.040Z,11.70
2022-10-22T02:45:21.580Z,11.70
2022-10-22T02:47:49.335Z,11.60
2022-10-22T02:50:16.780Z,11.60
2022-10-22T02:52:44.309Z,11.60
2022-10-22T02:55:11.678Z,11.60
2022-10-22T02:57:39.329Z,11.50
2022-10-22T03:00:09.094Z,11.40
2022-10-22T03:02:36.401Z,11.40
2022-10-22T03:05:04.786Z,11.40
2022-10-22T03:07:32.097Z,11.40
2022-10-22T03:09:59.484Z,11.40
2022-10-22T03:12:26.699Z,11.40
2022-10-22T03:14:54.038Z,11.40
2022-10-22T03:17:21.320Z,11.40
2022-10-22T03:19:48.550Z,11.30
2022-10-22T03:22:23.533Z,11.30
2022-10-22T03:24:54.560Z,11.20
2022-10-22T03:27:23.161Z,11.20
2022-10-22T03:29:51.921Z,11.20
2022-10-22T03:32:19.344Z,11.20
2022-10-22T03:34:46.722Z,11.20
2022-10-22T03:37:14.434Z,11.20
2022-10-22T03:39:41.972Z,11.30
2022-10-22T03:42:09.436Z,11.30
2022-10-22T03:44:38.934Z,11.20
2022-10-22T03:47:07.070Z,11.20
2022-10-22T03:49:34.286Z,11.20
2022-10-22T03:52:13.494Z,11.20
2022-10-22T03:54:42.425Z,11.10
2022-10-22T03:57:10.607Z,11.00
2022-10-22T03:59:40.558Z,11.00
2022-10-22T04:02:08.959Z,11.00
2022-10-22T04:04:37.203Z,10.90
2022-10-22T04:07:05.680Z,10.90
2022-10-22T04:09:34.233Z,10.80
2022-10-22T04:12:01.911Z,10.80
2022-10-22T04:14:29.151Z,10.70
2022-10-22T04:16:56.402Z,10.70
2022-10-22T04:19:23.953Z,10.70
2022-10-22T04:21:51.331Z,10.70
2022-10-22T04:24:18.545Z,10.60
2022-10-22T04:26:45.791Z,10.60
2022-10-22T04:29:15.999Z,10.60
2022-10-22T04:31:43.778Z,10.60
2022-10-22T04:34:11.162Z,10.60
2022-10-22T04:36:38.404Z,10.60
2022-10-22T04:39:06.733Z,10.60
2022-10-22T04:41:37.221Z,10.60
2022-10-22T04:44:05.869Z,10.60
2022-10-22T04:46:35.556Z,10.60
2022-10-22T04:49:04.080Z,10.70
2022-10-22T04:51:32.341Z,10.70
2022-10-22T04:53:59.618Z,10.70
2022-10-22T04:56:29.717Z,10.80
2022-10-22T04:58:59.510Z,10.80
2022-10-22T05:01:33.895Z,10.80
2022-10-22T05:04:03.630Z,10.80
2022-10-22T05:06:33.467Z,10.90
2022-10-22T05:09:05.860Z,10.90
2022-10-22T05:11:36.524Z,10.80
2022-10-22T05:14:06.107Z,10.90
2022-10-22T05:16:34.901Z,10.90
2022-10-22T05:19:03.385Z,10.90
2022-10-22T05:21:30.824Z,10.90
2022-10-22T05:24:01.508Z,11.00
2022-10-22T05:26:29.787Z,11.00
2022-10-22T05:28:57.845Z,11.10
2022-10-22T05:31:25.464Z,11.10
2022-10-22T05:33:52.707Z,11.10
2022-10-22T05:36:21.206Z,11.20
2022-10-22T05:38:49.284Z,11.20
2022-10-22T05:41:24.991Z,11.30
2022-10-22T05:43:55.883Z,11.30
2022-10-22T05:46:25.073Z,11.40
2022-10-22T05:49:00.758Z,11.40
2022-10-22T05:51:30.659Z,11.40
2022-10-22T05:54:00.348Z,11.50
2022-10-22T05:56:29.473Z,11.60
2022-10-22T05:58:57.088Z,11.60
2022-10-22T06:01:27.526Z,11.70
2022-10-22T06:03:59.751Z,11.70
2022-10-22T06:06:38.272Z,11.70
2022-10-22T06:09:13.886Z,11.80
2022-10-22T06:11:41.214Z,12.00
2022-10-22T06:14:09.880Z,12.10
2022-10-22T06:16:37.618Z,12.20
2022-10-22T06:19:05.313Z,12.40
2022-10-22T06:21:32.909Z,12.50
2022-10-22T06:24:02.292Z,12.60
2022-10-22T06:26:30.067Z,12.70
2022-10-22T06:28:58.174Z,12.80
2022-10-22T06:31:26.344Z,12.90
2022-10-22T06:33:53.831Z,13.00
2022-10-22T06:36:23.253Z,13.10
2022-10-22T06:38:54.756Z,13.10
2022-10-22T06:41:24.388Z,13.20
2022-10-22T06:43:54.892Z,13.40
2022-10-22T06:46:22.834Z,13.70
2022-10-22T06:48:55.566Z,13.80
2022-10-22T06:51:23.227Z,13.80
2022-10-22T06:53:50.763Z,13.80
2022-10-22T06:56:21.151Z,14.00
2022-10-22T06:58:52.771Z,14.20
2022-10-22T07:01:23.629Z,14.40
2022-10-22T07:03:52.283Z,14.40
2022-10-22T07:06:20.584Z,14.50
2022-10-22T07:08:48.014Z,14.70
2022-10-22T07:11:24.577Z,14.80
2022-10-22T07:13:54.755Z,14.90
2022-10-22T07:16:23.596Z,15.00
2022-10-22T07:18:53.063Z,15.20
2022-10-22T07:21:22.804Z,15.30
2022-10-22T07:23:50.148Z,15.40
2022-10-22T07:26:20.294Z,15.40
2022-10-22T07:28:48.344Z,15.40
2022-10-22T07:31:17.904Z,15.30
2022-10-22T07:33:45.882Z,15.20
2022-10-22T07:36:17.876Z,15.00
2022-10-22T07:38:47.014Z,14.80
2022-10-22T07:41:16.066Z,14.70
2022-10-22T07:43:43.729Z,14.60
2022-10-22T07:46:11.257Z,14.60
2022-10-22T07:48:39.821Z,14.50
2022-10-22T07:51:07.442Z,14.50
2022-10-22T07:53:35.228Z,14.50
2022-10-22T07:56:02.889Z,14.60
2022-10-22T07:58:30.540Z,14.80
2022-10-22T08:01:01.061Z,14.80
2022-10-22T08:03:29.186Z,14.80
2022-10-22T08:05:56.574Z,14.80
2022-10-22T08:08:27.126Z,14.70
2022-10-22T08:10:59.372Z,14.70
2022-10-22T08:13:27.946Z,14.80
2022-10-22T08:15:57.514Z,14.80
2022-10-22T08:18:25.595Z,14.90
2022-10-22T08:20:53.551Z,15.00
2022-10-22T08:23:25.849Z,15.10
2022-10-22T08:25:56.999Z,15.20
2022-10-22T08:28:24.589Z,15.40
2022-10-22T08:30:51.953Z,15.50
2022-10-22T08:33:19.338Z,15.60
2022-10-22T08:35:51.370Z,15.70
2022-10-22T08:38:19.485Z,15.70
2022-10-22T08:40:58.697Z,15.70
2022-10-22T08:43:50.730Z,15.70
2022-10-22T08:46:55.562Z,15.70
2022-10-22T08:49:30.270Z,15.60
2022-10-22T08:51:59.308Z,15.60
2022-10-22T08:54:54.684Z,15.60
2022-10-22T08:58:03.210Z,15.70
2022-10-22T09:00:47.842Z,15.80
2022-10-22T09:03:15.194Z,15.80
2022-10-22T09:06:18.692Z,15.70
2022-10-22T09:08:47.490Z,15.70
2022-10-22T09:11:34.619Z,15.70
2022-10-22T09:14:03.651Z,15.60
2022-10-22T09:16:47.190Z,15.60
2022-10-22T09:19:51.790Z,15.60
2022-10-22T09:22:28.289Z,15.60
2022-10-22T09:25:19.025Z,15.60
2022-10-22T09:27:47.047Z,15.50
2022-10-22T09:30:21.402Z,15.60
2022-10-22T09:33:18.242Z,15.50
2022-10-22T09:35:58.464Z,15.60
2022-10-22T09:38:29.610Z,15.60
2022-10-22T09:40:59.294Z,15.70
2022-10-22T09:43:26.886Z,15.70
2022-10-22T09:46:00.072Z,15.80
2022-10-22T09:48:34.588Z,15.90
2022-10-22T09:51:22.081Z,16.00
2022-10-22T09:54:01.606Z,16.10
2022-10-22T09:56:35.332Z,16.20
2022-10-22T09:59:03.529Z,16.20
2022-10-22T10:01:38.620Z,16.30
2022-10-22T10:04:11.842Z,16.20
2022-10-22T10:06:43.392Z,16.30
2022-10-22T10:09:22.482Z,16.30
2022-10-22T10:11:52.587Z,16.30
2022-10-22T10:14:40.689Z,16.30
2022-10-22T10:17:19.216Z,16.40
2022-10-22T10:20:24.667Z,16.60
2022-10-22T10:23:10.694Z,16.70
2022-10-22T10:25:42.332Z,16.80
2022-10-22T10:28:18.857Z,16.90
2022-10-22T10:31:00.507Z,17.10
2022-10-22T10:33:57.162Z,17.20
2022-10-22T10:36:42.813Z,17.30
2022-10-22T10:39:27.940Z,17.30
2022-10-22T10:42:20.158Z,17.40
2022-10-22T10:44:50.653Z,17.60
2022-10-22T10:47:56.198Z,17.70
2022-10-22T10:50:49.051Z,18.00
2022-10-22T10:53:25.254Z,18.20
2022-10-22T10:56:39.063Z,18.40
2022-10-22T10:59:18.381Z,18.50
2022-10-22T11:01:56.732Z,18.50
2022-10-22T11:04:42.429Z,18.50
2022-10-22T11:07:34.372Z,18.70
2022-10-22T11:10:37.193Z,18.80
2022-10-22T11:13:17.280Z,18.90
2022-10-22T11:15:52.168Z,19.00
2022-10-22T11:18:32.746Z,19.10
2022-10-22T11:21:06.854Z,19.20
2022-10-22T11:23:49.744Z,19.10
2022-10-22T11:26:37.364Z,19.10
2022-10-22T11:29:11.673Z,19.20
2022-10-22T11:31:40.062Z,19.40
2022-10-22T11:34:34.611Z,19.50
2022-10-22T11:37:04.751Z,19.60
2022-10-22T11:39:35.020Z,19.60
2022-10-22T11:42:05.400Z,19.60
2022-10-22T11:44:57.664Z,19.60
2022-10-22T11:47:26.604Z,19.70
2022-10-22T11:49:58.218Z,19.60
2022-10-22T11:52:28.524Z,19.50
2022-10-22T11:54:58.040Z,19.40
2022-10-22T11:57:39.346Z,19.40
2022-10-22T12:00:31.564Z,19.30
2022-10-22T12:03:23.607Z,19.30
2022-10-22T12:06:12.225Z,19.30
2022-10-22T12:08:48.923Z,19.30
2022-10-22T12:11:19.290Z,19.30
2022-10-22T12:14:01.566Z,19.20
2022-10-22T12:16:56.992Z,19.20
2022-10-22T12:19:36.432Z,19.20
2022-10-22T12:22:06.888Z,19.20
2022-10-22T12:24:40.826Z,19.30
2022-10-22T12:27:38.956Z,19.30
2022-10-22T12:30:27.843Z,19.30
2022-10-22T12:33:03.097Z,19.20
2022-10-22T12:35:33.690Z,19.10
2022-10-22T12:38:05.132Z,19.10
2022-10-22T12:40:35.380Z,19.00
2022-10-22T12:43:11.935Z,18.90
2022-10-22T12:45:42.720Z,18.80
2022-10-22T12:48:20.382Z,18.80
2022-10-22T12:50:54.698Z,18.70
2022-10-22T12:53:27.238Z,18.70
2022-10-22T12:55:56.340Z,18.70
2022-10-22T12:58:29.099Z,18.70
2022-10-22T13:00:59.266Z,18.60
2022-10-22T13:03:34.374Z,18.60
2022-10-22T13:06:25.861Z,18.70
2022-10-22T13:09:06.212Z,18.70
2022-10-22T13:11:42.593Z,18.60
2022-10-22T13:14:25.430Z,18.70
2022-10-22T13:17:11.672Z,18.70
2022-10-22T13:19:52.937Z,18.70
2022-10-22T13:22:35.204Z,18.70
2022-10-22T13:25:19.485Z,18.60
2022-10-22T13:28:03.004Z,18.60
2022-10-22T13:30:31.985Z,18.60
2022-10-22T13:33:02.291Z,18.60
2022-10-22T13:35:38.676Z,18.60
2022-10-22T13:38:20.422Z,18.50
2022-10-22T13:40:48.018Z,18.50
2022-10-22T13:43:17.079Z,18.50
2022-10-22T13:45:46.941Z,18.50
2022-10-22T13:48:16.740Z,18.50
2022-10-22T13:50:44.072Z,18.50
2022-10-22T13:53:19.164Z,18.50
2022-10-22T13:55:46.872Z,18.50
2022-10-22T13:58:19.974Z,18.40
2022-10-22T14:00:51.262Z,18.40
2022-10-22T14:03:22.204Z,18.40
2022-10-22T14:05:49.572Z,18.40
2022-10-22T14:08:19.936Z,18.50
2022-10-22T14:10:47.598Z,18.40
2022-10-22T14:13:17.092Z,18.50
2022-10-22T14:15:46.973Z,18.40
2022-10-22T14:18:24.321Z,18.50
2022-10-22T14:20:53.858Z,18.40
2022-10-22T14:23:23.462Z,18.40
2022-10-22T14:25:53.513Z,18.40
2022-10-22T14:28:20.743Z,18.40
2022-10-22T14:30:48.577Z,18.40
2022-10-22T14:33:17.196Z,18.40
2022-10-22T14:35:45.131Z,18.40
2022-10-22T14:38:12.425Z,18.40
2022-10-22T14:40:41.907Z,18.50
2022-10-22T14:43:25.862Z,18.50
2022-10-22T14:45:53.290Z,18.50
2022-10-22T14:48:20.661Z,18.50
2022-10-22T14:50:48.638Z,18.40
2022-10-22T14:53:16.833Z,18.40
2022-10-22T14:55:47.080Z,18.40
2022-10-22T14:58:15.108Z,18.30
2022-10-22T15:00:43.574Z,18.30
2022-10-22T15:03:11.755Z,18.20
2022-10-22T15:05:44.408Z,18.20
2022-10-22T15:08:14.588Z,18.10
2022-10-22T15:10:42.075Z,18.10
2022-10-22T15:13:09.789Z,18.10
2022-10-22T15:15:40.285Z,18.00
2022-10-22T15:18:08.226Z,18.00
2022-10-22T15:20:36.095Z,17.90
2022-10-22T15:23:03.530Z,17.90
2022-10-22T15:25:30.843Z,17.90
2022-10-22T15:28:00.750Z,17.90
2022-10-22T15:30:35.007Z,17.90
2022-10-22T15:33:02.508Z,17.90
2022-10-22T15:35:29.889Z,17.80
2022-10-22T15:37:57.131Z,17.80
2022-10-22T15:40:24.387Z,17.80
2022-10-22T15:42:51.753Z,17.80
2022-10-22T15:45:21.318Z,17.80
2022-10-22T15:47:49.215Z,17.70
2022-10-22T15:50:17.360Z,17.70
2022-10-22T15:52:44.604Z,17.60
2022-10-22T15:57:39.666Z,17.60
2022-10-22T16:00:09.018Z,17.60
2022-10-22T16:02:42.622Z,17.60
2022-10-22T16:05:10.089Z,17.50
2022-10-22T16:07:37.717Z,17.50
2022-10-22T16:10:07.689Z,17.50
2022-10-22T16:12:36.153Z,17.40
2022-10-22T16:15:04.090Z,17.40
2022-10-22T16:17:31.619Z,17.40
2022-10-22T16:19:59.111Z,17.30
2022-10-22T16:22:26.366Z,17.30
2022-10-22T16:24:53.948Z,17.30
2022-10-22T16:27:21.232Z,17.20
2022-10-22T16:29:49.047Z,17.30
2022-10-22T16:32:16.946Z,17.20
2022-10-22T16:34:44.334Z,17.20
2022-10-22T16:37:11.788Z,17.20
2022-10-22T16:39:39.049Z,17.20
2022-10-22T16:42:06.736Z,17.20
2022-10-22T16:44:34.104Z,17.20
2022-10-22T16:47:01.563Z,17.20
2022-10-22T16:49:29.004Z,17.10
2022-10-22T16:51:56.469Z,17.10
2022-10-22T16:54:23.721Z,17.10
2022-10-22T16:56:51.454Z,17.10
2022-10-22T16:59:18.892Z,17.10
2022-10-22T17:01:46.133Z,17.00
2022-10-22T17:04:13.339Z,17.00
2022-10-22T17:06:40.549Z,16.90
2022-10-22T17:09:07.982Z,16.90
2022-10-22T17:11:37.268Z,16.80
2022-10-22T17:14:06.540Z,16.80
2022-10-22T17:16:33.782Z,16.80
2022-10-22T17:19:03.787Z,16.70
2022-10-22T17:21:31.112Z,16.60
2022-10-22T17:23:58.779Z,16.70
2022-10-22T17:26:26.888Z,16.70
2022-10-22T17:28:55.367Z,16.60
2022-10-22T17:31:31.703Z,16.60
2022-10-22T17:34:00.046Z,16.60
2022-10-22T17:36:31.853Z,16.60
2022-10-22T17:39:04.208Z,16.60
2022-10-22T17:41:33.507Z,16.60
2022-10-22T17:44:04.001Z,16.60
2022-10-22T17:46:32.641Z,16.50
2022-10-22T17:49:03.460Z,16.50
2022-10-22T17:51:32.196Z,16.50
2022-10-22T17:53:59.618Z,16.50
2022-10-22T17:56:31.961Z,16.50
2022-10-22T17:59:02.382Z,16.50
2022-10-22T18:01:32.397Z,16.40
2022-10-22T18:04:02.691Z,16.40
2022-10-22T18:06:30.122Z,16.40
2022-10-22T18:08:57.576Z,16.40
2022-10-22T18:11:26.954Z,16.40
2022-10-22T18:13:56.946Z,16.40
2022-10-22T18:16:25.403Z,16.30
2022-10-22T18:18:54.780Z,16.40
2022-10-22T18:21:23.715Z,16.40
2022-10-22T18:23:51.545Z,16.40
2022-10-22T18:26:21.578Z,16.40
2022-10-22T18:28:51.747Z,16.40
2022-10-22T18:31:22.090Z,16.40
2022-10-22T18:33:49.549Z,16.40
2022-10-22T18:36:19.608Z,16.40
2022-10-22T18:38:57.741Z,16.40
2022-10-22T18:41:26.572Z,16.40
2022-10-22T18:43:56.457Z,16.40
2022-10-22T18:46:24.351Z,16.40
2022-10-22T18:48:56.064Z,16.40
2022-10-22T18:51:25.094Z,16.40
2022-10-22T18:54:05.529Z,16.40
2022-10-22T18:56:42.515Z,16.40
2022-10-22T18:59:20.488Z,16.40
2022-10-22T19:01:49.309Z,16.40
2022-10-22T19:04:17.614Z,16.30
2022-10-22T19:06:45.964Z,16.30
2022-10-22T19:09:15.573Z,16.30
2022-10-22T19:11:45.377Z,16.30
2022-10-22T19:14:14.720Z,16.20
2022-10-22T19:16:41.984Z,16.20
2022-10-22T19:19:09.240Z,16.20
2022-10-22T19:21:38.240Z,16.20
2022-10-22T19:24:05.947Z,16.20
2022-10-22T19:26:33.599Z,16.20
2022-10-22T19:29:01.641Z,16.20
2022-10-22T19:31:31.382Z,16.20
2022-10-22T19:34:02.955Z,16.20
2022-10-22T19:36:32.603Z,16.20
2022-10-22T19:39:00.862Z,16.10
2022-10-22T19:41:30.086Z,16.10
2022-10-22T19:43:58.765Z,16.10
2022-10-22T19:46:27.943Z,16.10
2022-10-22T19:48:58.179Z,16.10
2022-10-22T19:51:29.880Z,16.00
2022-10-22T19:54:00.177Z,16.10
2022-10-22T19:56:28.694Z,16.10
2022-10-22T19:58:56.431Z,16.10
2022-10-22T20:01:23.798Z,16.10
2022-10-22T20:03:51.575Z,16.00
2022-10-22T20:06:18.866Z,16.00
2022-10-22T20:08:46.844Z,16.00
2022-10-22T20:11:23.108Z,16.00
2022-10-22T20:13:52.320Z,16.00
2022-10-22T20:16:23.179Z,15.90
2022-10-22T20:18:51.899Z,15.90
2022-10-22T20:21:20.115Z,15.90
2022-10-22T20:23:51.043Z,15.90
2022-10-22T20:26:18.465Z,15.80
2022-10-22T20:28:45.668Z,15.80
2022-10-22T20:31:17.578Z,15.80
2022-10-22T20:33:44.797Z,15.80
2022-10-22T20:36:23.007Z,15.80
2022-10-22T20:38:51.723Z,15.70
2022-10-22T20:41:23.188Z,15.70
2022-10-22T20:43:51.717Z,15.60
2022-10-22T20:46:26.499Z,15.60
2022-10-22T20:48:56.794Z,15.40
2022-10-22T20:51:24.517Z,15.40
2022-10-22T20:53:51.947Z,15.20
2022-10-22T20:56:19.953Z,15.20
2022-10-22T20:58:48.887Z,15.10
2022-10-22T21:01:24.347Z,15.00
2022-10-22T21:03:52.818Z,15.00
2022-10-22T21:06:23.302Z,14.90
2022-10-22T21:08:51.927Z,14.90
2022-10-22T21:11:20.420Z,14.90
2022-10-22T21:13:48.013Z,14.90
2022-10-22T21:16:18.631Z,14.90
2022-10-22T21:18:46.991Z,14.80
2022-10-22T21:21:17.083Z,14.80
2022-10-22T21:23:44.599Z,14.70
2022-10-22T21:26:12.571Z,14.70
2022-10-22T21:28:40.039Z,14.60
2022-10-22T21:31:10.032Z,14.50
2022-10-22T21:33:38.819Z,14.50
2022-10-22T21:36:07.232Z,14.50
2022-10-22T21:38:36.091Z,14.40
2022-10-22T21:41:08.540Z,14.30
2022-10-22T21:43:40.366Z,14.30
2022-10-22T21:46:10.119Z,14.20
2022-10-22T21:48:38.640Z,14.20
2022-10-22T21:51:17.948Z,14.20
2022-10-22T21:53:45.635Z,14.10
2022-10-22T21:56:24.329Z,14.10
2022-10-22T21:58:51.702Z,14.00
2022-10-22T22:01:19.593Z,13.90
2022-10-22T22:03:51.643Z,13.90
2022-10-22T22:06:21.972Z,13.90
2022-10-22T22:08:51.759Z,13.90
2022-10-22T22:11:24.604Z,13.90
2022-10-22T22:13:54.193Z,13.90
2022-10-22T22:16:27.279Z,13.90
2022-10-22T22:18:59.137Z,13.80
2022-10-22T22:21:26.529Z,13.80
2022-10-22T22:23:54.353Z,13.70
2022-10-22T22:26:28.461Z,13.60
2022-10-22T22:28:59.317Z,13.60
2022-10-22T22:31:32.309Z,13.50
2022-10-22T22:34:06.863Z,13.50
2022-10-22T22:36:40.204Z,13.40
2022-10-22T22:39:10.502Z,13.40
2022-10-22T22:41:38.128Z,13.30
2022-10-22T22:44:05.752Z,13.30
2022-10-22T22:46:33.271Z,13.20
2022-10-22T22:49:00.519Z,13.20
2022-10-22T22:51:27.935Z,13.10
2022-10-22T22:53:57.827Z,13.10
2022-10-22T22:56:27.872Z,13.10
2022-10-22T22:58:55.744Z,13.10
2022-10-22T23:01:26.095Z,13.10
2022-10-22T23:04:11.505Z,13.10
2022-10-22T23:06:39.438Z,13.10
2022-10-22T23:09:09.975Z,13.00
2022-10-22T23:11:37.451Z,12.90
2022-10-22T23:14:06.643Z,12.90
2022-10-22T23:16:36.916Z,12.80
2022-10-22T23:19:05.301Z,12.80
2022-10-22T23:21:35.763Z,12.80
2022-10-22T23:24:06.854Z,12.90
2022-10-22T23:26:40.003Z,12.80
2022-10-22T23:29:11.586Z,12.90
2022-10-22T23:31:39.230Z,12.90
2022-10-22T23:34:07.840Z,12.90
2022-10-22T23:36:37.264Z,13.00
2022-10-22T23:39:06.644Z,12.90
2022-10-22T23:41:34.229Z,12.90
2022-10-22T23:44:02.606Z,12.80
2022-10-22T23:46:30.007Z,12.80
2022-10-22T23:48:57.393Z,12.70
2022-10-22T23:51:24.773Z,12.60
2022-10-22T23:54:00.782Z,12.50
2022-10-22T23:56:29.459Z,12.60
2022-10-22T23:58:57.308Z,12.60
